ADDS TAF Board (Experimental) INFO Settings
IDs: Format: Expanded Condensed

KIAD - Washington/Dulles In, VA, US

Issued at 1210 UTC 31 May 2016
Updated at: 1408 UTC 31 May 2016
Time1352Z 31/15Z 31/16Z 31/17Z 31/18Z 31/19Z 31/20Z 31/21Z 31/22Z 31/23Z 01/00Z 01/01Z 01/02Z 01/03Z
Type OBS PRVL PRVL PRVL PRVL PRVL PRVL PRVL PRVL PRVL PRVL PRVL PRVL PRVL
VIS 10 >6 >6 >6 >6 >6 >6 >6 >6 >6 >6 >6 >6 >6
CIG -- -- -- -- -- -- -- -- -- -- -- -- -- --
Cover FEW FEW FEW FEW FEW FEW FEW FEW FEW FEW FEW FEW FEW FEW
FltCat VFR VFR VFR VFR VFR VFR VFR VFR VFR VFR VFR VFR VFR VFR
WX -- -- -- -- -- -- -- -- -- -- -- -- -- --
WDir 340 10 10 10 10 10 10 10 10 80 80 80 80 80
WSpd 5 6 6 6 6 6 6 6 6 4 4 4 4 4
WGst -- -- -- -- -- -- -- -- -- -- -- -- -- --
R01/19
XWnd 2 -1 -1 -1 -1 -1 -1 -1 -1 -4 -4 -4 -4 -4
HWnd 5 6 6 6 6 6 6 6 6 1 1 1 1 1
R12/30
XWnd 4 6 6 6 6 6 6 6 6 2 2 2 2 2
HWnd -3 -1 -1 -1 -1 -1 -1 -1 -1 3 3 3 3 3

NOTE: TEMPO conditions in [brackets]. Keep in mind TEMPO conditions might be better (lower impact) than prevailing conditions.

Raw TAF
KIAD 311210Z 3112/0118 01006KT P6SM FEW250
  FM312300 08004KT P6SM FEW250
  FM010900 VRB03KT 3SM BR SCT250
  FM011300 05006KT P6SM FEW150 SCT250


Raw METAR
KIAD 311352Z 34005KT 10SM FEW035 FEW250 26/18 A2999 RMK AO2 SLP154 T02560183 $
KIAD 311252Z 36007KT 10SM FEW012 FEW250 24/18 A2999 RMK AO2 SLP153 T02440183 $
KIAD 311159Z 32005KT 5SM BR FEW006 SCT015 22/20 A2998 RMK AO2 T02170200
KIAD 311152Z 33005KT 5SM BR SCT006 BKN012 22/20 A2998 RMK AO2 SLP150 T02220200 10222 20200 53008

METAR Board
Radar Display
Forecast Discussion

TAF Board Legend

Potential Impact
Threat None Slight Moderate High
Visibility (sm) ≥5.1 5.1>X≥3 3>X≥1 <1
Ceiling (100 ft) ≥30.1 30.1>X≥10 10>X≥5 <5
Wind Speed (kt) <10 10≤X<20 20≤X<30 ≥30
Wind Gust (kt) <15 15≤X<25 25≤X<35 ≥35
Weather No Wx Reported VCTS,-TS,-FZRA,SN TS,FZRA +TS,+FZRA,+SN